createdAt,value
2018-12-25T00:00:30.082Z,6.00
2018-12-25T00:03:02.066Z,6.01
2018-12-25T00:05:36.127Z,6.13
2018-12-25T00:08:07.987Z,6.20
2018-12-25T00:10:39.884Z,6.25
2018-12-25T00:13:13.095Z,6.10
2018-12-25T00:15:44.983Z,5.91
2018-12-25T00:18:19.143Z,5.83
2018-12-25T00:20:51.054Z,5.73
2018-12-25T00:23:22.995Z,5.73
2018-12-25T00:25:55.309Z,5.72
2018-12-25T00:28:27.204Z,5.66
2018-12-25T00:30:59.050Z,5.59
2018-12-25T00:33:34.130Z,5.61
2018-12-25T00:36:06.058Z,5.59
2018-12-25T00:38:39.692Z,5.66
2018-12-25T00:41:11.553Z,5.62
2018-12-25T00:43:43.522Z,5.56
2018-12-25T00:46:15.420Z,5.56
2018-12-25T00:48:47.376Z,5.54
2018-12-25T00:51:19.264Z,5.60
2018-12-25T00:53:51.538Z,5.66
2018-12-25T00:56:23.389Z,5.42
2018-12-25T00:58:58.467Z,5.44
2018-12-25T01:01:30.394Z,5.52
2018-12-25T01:04:03.635Z,5.62
2018-12-25T01:06:36.190Z,5.60
2018-12-25T01:09:08.655Z,5.62
2018-12-25T01:11:40.534Z,5.61
2018-12-25T01:14:13.995Z,5.58
2018-12-25T01:16:47.597Z,5.60
2018-12-25T01:19:23.380Z,5.52
2018-12-25T01:21:53.227Z,5.47
2018-12-25T01:24:25.145Z,5.34
2018-12-25T01:26:57.028Z,5.37
2018-12-25T01:29:31.905Z,5.37
2018-12-25T01:32:03.789Z,5.30
2018-12-25T01:34:35.730Z,5.35
2018-12-25T01:37:08.044Z,5.15
2018-12-25T01:39:40.928Z,5.05
2018-12-25T01:42:12.850Z,5.01
2018-12-25T01:44:45.393Z,5.08
2018-12-25T01:47:17.245Z,5.09
2018-12-25T01:49:49.525Z,5.17
2018-12-25T01:52:21.423Z,5.27
2018-12-25T01:54:53.429Z,5.26
2018-12-25T01:57:26.058Z,5.40
2018-12-25T02:00:00.442Z,5.40
2018-12-25T02:02:32.913Z,5.42
2018-12-25T02:05:04.820Z,5.39
2018-12-25T02:07:36.721Z,5.40
2018-12-25T02:10:08.661Z,5.46
2018-12-25T02:12:40.800Z,5.45
2018-12-25T02:15:12.709Z,5.39
2018-12-25T02:17:44.626Z,5.35
2018-12-25T02:20:21.565Z,5.38
2018-12-25T02:22:53.488Z,5.45
2018-12-25T02:25:26.221Z,5.52
2018-12-25T02:27:58.497Z,5.45
2018-12-25T02:30:30.460Z,5.49
2018-12-25T02:33:02.378Z,5.51
2018-12-25T02:35:37.574Z,5.46
2018-12-25T02:38:09.607Z,5.40
2018-12-25T02:40:41.444Z,5.32
2018-12-25T02:43:13.348Z,5.40
2018-12-25T02:45:45.240Z,5.44
2018-12-25T02:48:20.602Z,5.46
2018-12-25T02:50:52.546Z,5.55
2018-12-25T02:53:24.755Z,5.63
2018-12-25T02:55:56.724Z,5.72
2018-12-25T02:58:28.613Z,5.74
2018-12-25T03:01:00.544Z,5.66
2018-12-25T03:03:32.379Z,5.65
2018-12-25T03:06:06.202Z,5.65
2018-12-25T03:08:38.039Z,5.63
2018-12-25T03:11:10.002Z,5.60
2018-12-25T03:13:41.934Z,5.49
2018-12-25T03:16:13.768Z,5.56
2018-12-25T03:18:46.035Z,5.44
2018-12-25T03:21:17.900Z,5.58
2018-12-25T03:23:49.756Z,5.42
2018-12-25T03:26:22.191Z,5.45
2018-12-25T03:28:54.152Z,5.56
2018-12-25T03:31:26.569Z,5.54
2018-12-25T03:33:59.456Z,5.55
2018-12-25T03:36:31.475Z,5.50
2018-12-25T03:39:04.118Z,5.54
2018-12-25T03:41:37.130Z,5.62
2018-12-25T03:44:13.835Z,5.63
2018-12-25T03:46:45.927Z,5.61
2018-12-25T03:49:19.936Z,5.61
2018-12-25T03:51:51.791Z,5.62
2018-12-25T03:54:23.681Z,5.67
2018-12-25T03:56:55.559Z,5.75
2018-12-25T03:59:27.450Z,5.83
2018-12-25T04:01:59.397Z,5.83
2018-12-25T04:04:31.552Z,5.85
2018-12-25T04:07:03.435Z,5.87
2018-12-25T04:09:35.274Z,5.79
2018-12-25T04:12:07.246Z,5.76
2018-12-25T04:14:40.221Z,5.70
2018-12-25T04:17:12.112Z,5.66
2018-12-25T04:19:44.003Z,5.70
2018-12-25T04:22:16.063Z,5.66
2018-12-25T04:24:47.978Z,5.66
2018-12-25T04:27:19.872Z,5.68
2018-12-25T04:29:52.081Z,5.55
2018-12-25T04:32:23.973Z,5.53
2018-12-25T04:34:55.922Z,5.40
2018-12-25T04:37:27.839Z,5.46
2018-12-25T04:39:59.697Z,5.51
2018-12-25T04:42:31.676Z,5.42
2018-12-25T04:45:06.900Z,5.39
2018-12-25T04:47:38.769Z,5.41
2018-12-25T04:50:11.117Z,5.50
2018-12-25T04:52:42.997Z,5.49
2018-12-25T04:55:14.851Z,5.47
2018-12-25T04:57:46.805Z,5.50
2018-12-25T05:00:18.963Z,5.35
2018-12-25T05:02:50.857Z,5.33
2018-12-25T05:05:22.685Z,5.32
2018-12-25T05:07:54.823Z,5.29
2018-12-25T05:10:26.655Z,5.34
2018-12-25T05:12:58.529Z,5.37
2018-12-25T05:15:30.373Z,5.37
2018-12-25T05:18:02.322Z,5.34
2018-12-25T05:20:37.939Z,5.31
2018-12-25T05:23:08.204Z,5.22
2018-12-25T05:25:40.407Z,5.23
2018-12-25T05:28:12.289Z,5.22
2018-12-25T05:30:44.167Z,5.15
2018-12-25T05:33:16.027Z,5.07
2018-12-25T05:35:47.952Z,5.01
2018-12-25T05:38:19.835Z,5.02
2018-12-25T05:40:51.674Z,5.07
2018-12-25T05:43:23.555Z,5.11
2018-12-25T05:45:55.461Z,5.12
2018-12-25T05:48:27.383Z,5.04
2018-12-25T05:50:59.297Z,5.06
2018-12-25T05:53:31.198Z,4.99
2018-12-25T05:56:03.064Z,5.05
2018-12-25T05:58:35.079Z,5.03
2018-12-25T06:01:08.471Z,5.06
2018-12-25T06:03:40.357Z,5.05
2018-12-25T06:06:16.259Z,5.02
2018-12-25T06:08:48.150Z,5.00
2018-12-25T06:11:20.007Z,5.05
2018-12-25T06:13:51.897Z,5.07
2018-12-25T06:16:23.751Z,5.05
2018-12-25T06:18:55.822Z,5.02
2018-12-25T06:21:27.689Z,5.07
2018-12-25T06:23:59.626Z,5.14
2018-12-25T06:26:31.504Z,5.13
2018-12-25T06:29:03.379Z,5.19
2018-12-25T06:31:38.409Z,5.18
2018-12-25T06:34:10.381Z,5.13
2018-12-25T06:36:42.428Z,5.06
2018-12-25T06:39:14.254Z,4.90
2018-12-25T06:41:46.163Z,4.82
2018-12-25T06:44:19.016Z,4.85
2018-12-25T06:46:50.917Z,4.87
2018-12-25T06:49:22.752Z,4.81
2018-12-25T06:51:54.655Z,4.73
2018-12-25T06:54:26.701Z,4.73
2018-12-25T06:56:58.603Z,4.75
2018-12-25T06:59:30.485Z,4.83
2018-12-25T07:02:05.342Z,4.88
2018-12-25T07:04:37.380Z,4.88
2018-12-25T07:07:09.279Z,4.97
2018-12-25T07:09:41.181Z,4.89
2018-12-25T07:12:13.082Z,4.94
2018-12-25T07:14:44.980Z,4.81
2018-12-25T07:17:16.926Z,4.80
2018-12-25T07:19:48.790Z,4.76
2018-12-25T07:22:23.342Z,4.75
2018-12-25T07:24:55.216Z,4.76
2018-12-25T07:27:28.219Z,4.83
2018-12-25T07:30:00.182Z,4.74
2018-12-25T07:32:34.530Z,4.69
2018-12-25T07:35:06.505Z,4.73
2018-12-25T07:37:38.607Z,4.69
2018-12-25T07:40:12.129Z,4.71
2018-12-25T07:42:43.958Z,4.70
2018-12-25T07:45:15.927Z,4.72
2018-12-25T07:47:47.874Z,4.81
2018-12-25T07:50:19.786Z,4.84
2018-12-25T07:52:51.748Z,4.90
2018-12-25T07:55:23.608Z,4.95
2018-12-25T07:57:55.509Z,4.98
2018-12-25T08:00:27.797Z,4.99
2018-12-25T08:02:59.700Z,4.98
2018-12-25T08:05:31.605Z,5.03
2018-12-25T08:08:03.504Z,5.06
2018-12-25T08:10:35.337Z,5.08
2018-12-25T08:13:07.366Z,5.07
2018-12-25T08:15:39.219Z,5.08
2018-12-25T08:18:11.118Z,5.10
2018-12-25T08:20:43.028Z,5.17
2018-12-25T08:23:16.828Z,5.04
2018-12-25T08:25:48.737Z,4.94
2018-12-25T08:28:22.196Z,4.96
2018-12-25T08:30:54.186Z,4.93
2018-12-25T08:33:26.077Z,4.94
2018-12-25T08:35:58.219Z,4.90
2018-12-25T08:38:30.439Z,4.99
2018-12-25T08:41:02.315Z,5.02
2018-12-25T08:43:34.262Z,5.09
2018-12-25T08:46:08.142Z,5.16
2018-12-25T08:48:39.749Z,5.27
2018-12-25T08:51:11.584Z,5.39
2018-12-25T08:53:43.456Z,5.34
2018-12-25T08:56:15.467Z,5.42
2018-12-25T08:58:47.383Z,5.43
2018-12-25T09:01:19.407Z,5.44
2018-12-25T09:03:51.311Z,5.52
2018-12-25T09:06:23.249Z,5.59
2018-12-25T09:08:55.101Z,5.67
2018-12-25T09:11:27.359Z,5.73
2018-12-25T09:13:59.243Z,5.90
2018-12-25T09:16:31.120Z,6.00
2018-12-25T09:19:04.131Z,6.19
2018-12-25T09:21:36.008Z,6.18
2018-12-25T09:24:09.612Z,6.26
2018-12-25T09:26:42.192Z,6.36
2018-12-25T09:29:14.281Z,6.46
2018-12-25T09:31:46.349Z,6.45
2018-12-25T09:34:18.845Z,6.60
2018-12-25T09:36:50.782Z,6.63
2018-12-25T09:39:22.760Z,6.61
2018-12-25T09:41:54.602Z,6.81
2018-12-25T09:44:27.954Z,6.72
2018-12-25T09:46:59.791Z,6.86
2018-12-25T09:49:31.678Z,6.97
2018-12-25T09:52:03.534Z,6.92
2018-12-25T09:54:35.463Z,7.07
2018-12-25T09:57:07.299Z,7.11
2018-12-25T09:59:39.199Z,7.21
2018-12-25T10:02:13.960Z,7.53
2018-12-25T10:04:45.846Z,7.80
2018-12-25T10:07:17.761Z,8.33
2018-12-25T10:09:49.673Z,8.83
2018-12-25T10:12:21.681Z,9.19
2018-12-25T10:14:55.382Z,9.83
2018-12-25T10:17:27.300Z,10.14
2018-12-25T10:19:59.241Z,10.34
2018-12-25T10:22:31.535Z,10.93
2018-12-25T10:25:03.437Z,11.54
2018-12-25T10:27:37.020Z,12.23
2018-12-25T10:30:09.352Z,12.46
2018-12-25T10:32:41.244Z,13.46
2018-12-25T10:35:13.593Z,14.91
2018-12-25T10:37:45.536Z,15.08
2018-12-25T10:40:17.649Z,15.84
2018-12-25T10:42:49.559Z,16.19
2018-12-25T10:45:21.496Z,16.50
2018-12-25T10:47:53.509Z,16.50
2018-12-25T10:50:26.026Z,16.56
2018-12-25T10:52:59.519Z,17.56
2018-12-25T10:55:32.715Z,18.68
2018-12-25T10:58:04.710Z,19.65
2018-12-25T11:00:42.928Z,20.15
2018-12-25T11:03:14.914Z,21.17
2018-12-25T11:05:46.910Z,20.96
2018-12-25T11:08:19.061Z,21.06
2018-12-25T11:10:51.459Z,21.74
2018-12-25T11:13:24.702Z,20.19
2018-12-25T11:15:56.574Z,21.05
2018-12-25T11:18:28.518Z,20.50
2018-12-25T11:21:00.388Z,19.31
2018-12-25T11:23:32.278Z,19.98
2018-12-25T11:26:04.633Z,19.91
2018-12-25T11:28:36.513Z,20.64
2018-12-25T11:31:08.413Z,20.60
2018-12-25T11:33:40.269Z,21.97
2018-12-25T11:36:12.170Z,22.88
2018-12-25T11:38:44.794Z,23.19
2018-12-25T11:41:16.703Z,24.06
2018-12-25T11:43:48.601Z,24.60
2018-12-25T11:46:20.522Z,25.25
2018-12-25T11:48:52.711Z,24.31
2018-12-25T11:51:24.667Z,25.59
2018-12-25T11:53:56.530Z,25.10
2018-12-25T11:56:28.507Z,25.89
2018-12-25T11:59:00.904Z,26.59
2018-12-25T12:01:34.745Z,25.53
2018-12-25T12:04:08.282Z,25.02
2018-12-25T12:06:40.552Z,24.05
2018-12-25T12:09:12.438Z,24.32
2018-12-25T12:11:44.298Z,24.56
2018-12-25T12:14:16.200Z,24.32
2018-12-25T12:16:48.099Z,25.42
2018-12-25T12:19:19.951Z,25.10
2018-12-25T12:21:51.834Z,24.94
2018-12-25T12:24:23.779Z,25.53
2018-12-25T12:26:55.783Z,24.58
2018-12-25T12:29:27.643Z,24.79
2018-12-25T12:31:59.567Z,24.74
2018-12-25T12:34:31.690Z,26.35
2018-12-25T12:37:04.321Z,26.78
2018-12-25T12:39:36.264Z,27.10
2018-12-25T12:42:10.400Z,26.68
2018-12-25T12:44:42.733Z,26.35
2018-12-25T12:47:14.631Z,25.85
2018-12-25T12:49:46.516Z,25.12
2018-12-25T12:52:18.443Z,26.69
2018-12-25T12:54:50.335Z,24.71
2018-12-25T12:57:22.221Z,24.34
2018-12-25T12:59:54.235Z,23.26
2018-12-25T13:02:26.531Z,24.63
2018-12-25T13:05:00.600Z,24.01
2018-12-25T13:07:32.817Z,23.90
2018-12-25T13:10:05.543Z,23.25
2018-12-25T13:12:37.566Z,22.11
2018-12-25T13:15:09.904Z,22.82
2018-12-25T13:17:41.717Z,23.31
2018-12-25T13:20:13.616Z,23.88
2018-12-25T13:22:53.866Z,23.69
2018-12-25T13:25:19.161Z,21.72
2018-12-25T13:27:51.137Z,20.48
2018-12-25T13:30:23.035Z,19.55
2018-12-25T13:32:54.949Z,19.49
2018-12-25T13:35:26.824Z,18.91
2018-12-25T13:37:58.709Z,18.72
2018-12-25T13:40:30.845Z,18.53
2018-12-25T13:43:03.363Z,18.18
2018-12-25T13:45:37.299Z,18.12
2018-12-25T13:48:11.626Z,17.90
2018-12-25T13:50:43.491Z,18.09
2018-12-25T13:53:15.465Z,17.83
2018-12-25T13:55:47.614Z,17.51
2018-12-25T13:58:19.728Z,16.95
2018-12-25T14:00:51.728Z,17.17
2018-12-25T14:03:24.084Z,17.23
2018-12-25T14:05:56.238Z,17.52
2018-12-25T14:08:28.626Z,17.19
2018-12-25T14:11:00.684Z,17.46
2018-12-25T14:13:32.832Z,17.03
2018-12-25T14:16:04.656Z,17.06
2018-12-25T14:18:36.540Z,16.52
2018-12-25T14:21:08.386Z,16.76
2018-12-25T14:23:40.267Z,16.83
2018-12-25T14:26:13.115Z,16.75
2018-12-25T14:28:44.999Z,16.58
2018-12-25T14:31:16.818Z,16.78
2018-12-25T14:33:48.716Z,16.67
2018-12-25T14:36:20.553Z,16.63
2018-12-25T14:38:52.542Z,16.54
2018-12-25T14:41:24.376Z,16.61
2018-12-25T14:44:04.936Z,16.72
2018-12-25T14:46:30.841Z,16.71
2018-12-25T14:49:03.062Z,16.68
2018-12-25T14:51:34.984Z,16.70
2018-12-25T14:54:07.033Z,16.44
2018-12-25T14:56:41.147Z,16.33
2018-12-25T14:59:13.175Z,16.21
2018-12-25T15:01:45.037Z,16.14
2018-12-25T15:04:16.880Z,15.97
2018-12-25T15:06:48.823Z,15.77
2018-12-25T15:09:20.667Z,15.68
2018-12-25T15:11:52.548Z,15.44
2018-12-25T15:14:24.380Z,15.37
2018-12-25T15:16:56.245Z,15.35
2018-12-25T15:19:28.093Z,15.14
2018-12-25T15:22:00.308Z,15.03
2018-12-25T15:24:32.189Z,15.05
2018-12-25T15:27:04.149Z,14.99
2018-12-25T15:29:36.031Z,14.90
2018-12-25T15:32:07.912Z,14.81
2018-12-25T15:34:39.734Z,14.76
2018-12-25T15:37:11.628Z,14.78
2018-12-25T15:39:43.521Z,14.79
2018-12-25T15:42:15.416Z,14.70
2018-12-25T15:44:47.448Z,14.62
2018-12-25T15:47:19.617Z,14.56
2018-12-25T15:49:52.318Z,14.48
2018-12-25T15:52:24.535Z,14.24
2018-12-25T15:54:56.546Z,14.14
2018-12-25T15:57:28.614Z,14.11
2018-12-25T16:00:00.749Z,14.10
2018-12-25T16:02:36.236Z,14.01
2018-12-25T16:05:08.292Z,13.95
2018-12-25T16:07:42.734Z,13.85
2018-12-25T16:10:14.698Z,13.69
2018-12-25T16:12:46.589Z,13.60
2018-12-25T16:15:18.486Z,13.48
2018-12-25T16:17:51.486Z,13.47
2018-12-25T16:20:23.315Z,13.40
2018-12-25T16:22:55.147Z,13.33
2018-12-25T16:25:27.087Z,13.20
2018-12-25T16:27:59.499Z,13.12
2018-12-25T16:30:31.861Z,13.02
2018-12-25T16:33:03.939Z,12.95
2018-12-25T16:35:36.563Z,12.87
2018-12-25T16:38:08.901Z,12.81
2018-12-25T16:40:41.096Z,12.72
2018-12-25T16:43:13.262Z,12.63
2018-12-25T16:45:46.962Z,12.57
2018-12-25T16:48:19.722Z,12.44
2018-12-25T16:50:53.681Z,12.46
2018-12-25T16:53:26.077Z,12.36
2018-12-25T16:55:58.036Z,12.17
2018-12-25T16:58:29.934Z,12.24
2018-12-25T17:01:02.760Z,12.08
2018-12-25T17:03:37.116Z,12.02
2018-12-25T17:06:09.062Z,11.93
2018-12-25T17:08:40.954Z,11.86
2018-12-25T17:11:13.267Z,11.90
2018-12-25T17:13:45.335Z,11.76
2018-12-25T17:16:17.952Z,11.39
2018-12-25T17:18:50.521Z,11.45
2018-12-25T17:21:22.536Z,11.34
2018-12-25T17:24:01.961Z,11.26
2018-12-25T17:26:28.573Z,11.15
2018-12-25T17:29:00.861Z,11.03
2018-12-25T17:31:33.006Z,10.98
2018-12-25T17:34:04.993Z,10.88
2018-12-25T17:36:36.889Z,10.82
2018-12-25T17:39:12.393Z,10.79
2018-12-25T17:41:47.796Z,10.70
2018-12-25T17:44:19.729Z,10.65
2018-12-25T17:46:51.642Z,10.71
2018-12-25T17:49:23.781Z,10.86
2018-12-25T17:51:57.436Z,10.81
2018-12-25T17:54:32.148Z,10.67
2018-12-25T17:57:04.258Z,10.63
2018-12-25T17:59:36.245Z,10.60
2018-12-25T18:02:08.120Z,10.50
2018-12-25T18:04:40.078Z,10.41
2018-12-25T18:07:11.950Z,10.41
2018-12-25T18:09:43.942Z,10.32
2018-12-25T18:12:15.852Z,10.25
2018-12-25T18:14:47.820Z,10.15
2018-12-25T18:17:19.728Z,10.09
2018-12-25T18:19:51.694Z,10.00
2018-12-25T18:22:23.627Z,9.91
2018-12-25T18:24:55.717Z,9.88
2018-12-25T18:27:29.573Z,9.82
2018-12-25T18:30:01.522Z,9.79
2018-12-25T18:32:33.496Z,9.80
2018-12-25T18:35:05.840Z,9.75
2018-12-25T18:37:38.870Z,9.75
2018-12-25T18:40:11.808Z,9.69
2018-12-25T18:42:44.926Z,9.62
2018-12-25T18:45:16.834Z,9.58
2018-12-25T18:47:48.744Z,9.47
2018-12-25T18:50:20.582Z,9.36
2018-12-25T18:52:52.719Z,9.25
2018-12-25T18:55:27.854Z,9.21
2018-12-25T18:58:00.870Z,9.09
2018-12-25T19:00:34.851Z,9.13
2018-12-25T19:03:06.802Z,9.08
2018-12-25T19:05:39.694Z,8.96
2018-12-25T19:08:11.684Z,8.95
2018-12-25T19:10:43.984Z,8.91
2018-12-25T19:13:15.937Z,8.90
2018-12-25T19:15:49.652Z,8.86
2018-12-25T19:18:21.901Z,8.87
2018-12-25T19:20:53.802Z,8.78
2018-12-25T19:23:25.833Z,8.75
2018-12-25T19:25:57.809Z,8.70
2018-12-25T19:28:29.728Z,8.66
2018-12-25T19:31:01.600Z,8.62
2018-12-25T19:33:33.494Z,8.61
2018-12-25T19:36:05.540Z,8.53
2018-12-25T19:38:37.411Z,8.59
2018-12-25T19:41:09.269Z,8.58
2018-12-25T19:43:42.517Z,8.34
2018-12-25T19:46:14.476Z,8.47
2018-12-25T19:48:46.367Z,8.37
2018-12-25T19:51:18.371Z,8.33
2018-12-25T19:53:50.204Z,8.34
2018-12-25T19:56:22.105Z,8.29
2018-12-25T19:58:53.935Z,8.21
2018-12-25T20:01:27.592Z,8.06
2018-12-25T20:04:40.404Z,7.89
2018-12-25T20:07:39.193Z,7.83
2018-12-25T20:10:43.101Z,7.77
2018-12-25T20:14:10.034Z,7.72
2018-12-25T20:17:31.916Z,7.70
2018-12-25T20:20:41.430Z,7.70
2018-12-25T20:24:19.383Z,7.69
2018-12-25T20:27:15.467Z,7.77
2018-12-25T20:30:12.934Z,7.75
2018-12-25T20:33:08.007Z,7.66
2018-12-25T20:36:13.258Z,7.64
2018-12-25T20:39:30.923Z,7.49
2018-12-25T20:42:33.663Z,7.40
2018-12-25T20:45:51.435Z,7.40
2018-12-25T20:48:58.835Z,7.37
2018-12-25T20:52:03.025Z,7.31
2018-12-25T20:55:37.094Z,7.36
2018-12-25T20:58:54.871Z,7.24
2018-12-25T21:02:03.848Z,7.07
2018-12-25T21:05:34.410Z,6.99
2018-12-25T21:08:43.955Z,7.01
2018-12-25T21:11:50.323Z,7.02
2018-12-25T21:14:51.632Z,7.00
2018-12-25T21:18:19.457Z,6.91
2018-12-25T21:21:45.946Z,6.90
2018-12-25T21:24:53.516Z,6.75
2018-12-25T21:27:30.071Z,6.68
2018-12-25T21:30:09.141Z,6.68
2018-12-25T21:32:43.406Z,6.70
2018-12-25T21:35:25.814Z,6.72
2018-12-25T21:37:58.666Z,6.74
2018-12-25T21:40:30.749Z,6.65
2018-12-25T21:43:02.921Z,6.53
2018-12-25T21:45:34.959Z,6.47
2018-12-25T21:48:07.032Z,6.39
2018-12-25T21:50:39.148Z,6.43
2018-12-25T21:53:12.539Z,6.46
2018-12-25T21:55:44.587Z,6.39
2018-12-25T21:58:17.272Z,6.36
2018-12-25T22:00:49.360Z,6.31
2018-12-25T22:03:21.523Z,6.44
2018-12-25T22:05:53.383Z,6.42
2018-12-25T22:08:25.686Z,6.39
2018-12-25T22:10:57.845Z,6.42
2018-12-25T22:13:34.643Z,6.36
2018-12-25T22:16:07.805Z,6.30
2018-12-25T22:18:40.750Z,6.34
2018-12-25T22:21:12.819Z,6.31
2018-12-25T22:23:46.387Z,6.28
2018-12-25T22:26:18.457Z,6.20
2018-12-25T22:28:51.411Z,6.17
2018-12-25T22:31:24.146Z,6.18
2018-12-25T22:33:57.085Z,6.04
2018-12-25T22:36:32.763Z,6.05
2018-12-25T22:39:05.975Z,6.07
2018-12-25T22:41:38.298Z,6.07
2018-12-25T22:44:10.631Z,6.10
2018-12-25T22:46:44.320Z,6.17
2018-12-25T22:49:16.980Z,6.21
2018-12-25T22:51:53.829Z,6.08
2018-12-25T22:54:26.156Z,6.00
2018-12-25T22:56:58.960Z,5.91
2018-12-25T22:59:36.508Z,5.84
2018-12-25T23:02:10.626Z,5.85
2018-12-25T23:04:43.753Z,5.86
2018-12-25T23:07:17.311Z,5.86
2018-12-25T23:09:49.448Z,5.92
2018-12-25T23:12:21.888Z,5.94
2018-12-25T23:14:54.202Z,6.03
2018-12-25T23:17:26.098Z,6.12
2018-12-25T23:19:58.145Z,6.16
2018-12-25T23:22:30.071Z,6.17
2018-12-25T23:25:02.009Z,6.12
2018-12-25T23:27:33.923Z,6.01
2018-12-25T23:30:06.453Z,5.93
2018-12-25T23:32:38.929Z,5.75
2018-12-25T23:35:10.946Z,5.70
2018-12-25T23:37:44.738Z,5.75
2018-12-25T23:40:16.962Z,5.60
2018-12-25T23:42:49.887Z,5.65
2018-12-25T23:45:23.396Z,5.65
2018-12-25T23:47:55.491Z,5.65
2018-12-25T23:50:27.838Z,5.66
2018-12-25T23:53:00.072Z,5.62
2018-12-25T23:55:31.983Z,5.53
2018-12-25T23:58:04.935Z,5.57
